South Daytona Beach, Florida
Current Conditions -  °F | °C
As of 6:53 AM on Sunday 25 Jan 2015 (Local Time) from KDAB Reporting Station
Few Clouds Few Clouds  
Wind Chill: 35°   Ceiling: Unl
Heat Index: 39°   Visibility: 10mi
Dew Point: 37°   Wind: 6mph
Humidity: 93%   Direction: 260°W
Pressure: 30.1"   Gusts: NA
Location:  29.1638°N, 81.0283°W
Report Text: KDAB 251153Z 26005KT 10SM FEW050 FEW130 FEW250 04/03 A3010 RMK AO2 SLP192 70012 T00390028 10072 20039 53023
Loading
Personal Weather Stations






























Interactive Weather Map New forecast layout! Learn more

10-Day Weather Forecast

Advertisements
Track Severe Weather on mobile